Time,TemperatureF,DewpointF,PressureIn,WindDirection,WindDirectionDegrees,WindSpeedMPH,WindSpeedGustMPH,Humidity,HourlyPrecipIn,Conditions,Clouds,dailyrainin,SoftwareType,DateUTC
2013-08-07 00:01:00,69.5,54.0,29.67,North,5,0.0,1.0,59,0.00,,,0.00,weatherlink.com 1.10,2013-08-07 06:01:00,
2013-08-07 00:17:00,69.5,54.0,29.67,NNE,16,0.0,1.0,58,0.00,,,0.00,weatherlink.com 1.10,2013-08-07 06:17:00,
2013-08-07 00:32:00,69.2,54.0,29.67,NNE,16,0.0,0.0,59,0.00,,,0.00,weatherlink.com 1.10,2013-08-07 06:32:00,
2013-08-07 00:47:00,69.0,54.0,29.67,NNE,16,0.0,0.0,59,0.00,,,0.00,weatherlink.com 1.10,2013-08-07 06:47:00,
2013-08-07 01:02:00,69.3,54.0,29.66,WNW,296,0.0,1.0,58,0.00,,,0.00,weatherlink.com 1.10,2013-08-07 07:02:00,
2013-08-07 01:17:00,70.0,53.0,29.66,NNW,342,1.0,6.0,55,0.00,,,0.00,weatherlink.com 1.10,2013-08-07 07:17:00,
2013-08-07 01:32:00,70.1,53.0,29.66,NNW,329,0.0,2.0,54,0.00,,,0.00,weatherlink.com 1.10,2013-08-07 07:32:00,
2013-08-07 01:47:00,69.7,53.0,29.66,NW,314,0.0,3.0,55,0.00,,,0.00,weatherlink.com 1.10,2013-08-07 07:47:00,
2013-08-07 02:02:00,69.4,52.0,29.66,NW,317,0.0,0.0,55,0.00,,,0.00,weatherlink.com 1.10,2013-08-07 08:02:00,
2013-08-07 02:17:00,69.1,53.0,29.66,West,273,2.0,2.0,57,0.00,,,0.00,weatherlink.com 1.10,2013-08-07 08:17:00,
2013-08-07 02:32:00,69.0,53.0,29.66,WNW,292,0.0,2.0,57,0.00,,,0.00,weatherlink.com 1.10,2013-08-07 08:32:00,
2013-08-07 02:47:00,68.4,53.0,29.67,WNW,292,0.0,0.0,58,0.00,,,0.00,weatherlink.com 1.10,2013-08-07 08:47:00,
2013-08-07 03:02:00,67.5,53.0,29.66,WNW,292,0.0,0.0,61,0.00,,,0.00,weatherlink.com 1.10,2013-08-07 09:02:00,
2013-08-07 03:17:00,65.4,53.0,29.66,WNW,292,0.0,0.0,64,0.00,,,0.00,weatherlink.com 1.10,2013-08-07 09:17:00,
2013-08-07 03:32:00,64.5,53.0,29.66,WNW,292,0.0,0.0,66,0.00,,,0.00,weatherlink.com 1.10,2013-08-07 09:32:00,
2013-08-07 03:47:00,63.9,52.0,29.65,WNW,292,0.0,0.0,66,0.00,,,0.00,weatherlink.com 1.10,2013-08-07 09:47:00,
2013-08-07 04:02:00,63.6,52.0,29.65,WNW,292,0.0,0.0,67,0.00,,,0.00,weatherlink.com 1.10,2013-08-07 10:02:00,
2013-08-07 04:17:00,63.2,52.0,29.65,WNW,292,0.0,0.0,68,0.00,,,0.00,weatherlink.com 1.10,2013-08-07 10:17:00,
2013-08-07 04:32:00,62.9,53.0,29.65,WNW,292,0.0,0.0,69,0.00,,,0.00,weatherlink.com 1.10,2013-08-07 10:32:00,
2013-08-07 04:47:00,62.5,53.0,29.65,WNW,292,0.0,0.0,70,0.00,,,0.00,weatherlink.com 1.10,2013-08-07 10:47:00,
2013-08-07 05:02:00,62.5,53.0,29.66,WNW,292,0.0,0.0,71,0.00,,,0.00,weatherlink.com 1.10,2013-08-07 11:02:00,
2013-08-07 05:17:00,62.8,52.0,29.65,WNW,292,0.0,0.0,69,0.00,,,0.00,weatherlink.com 1.10,2013-08-07 11:17:00,
2013-08-07 05:32:00,62.6,53.0,29.66,WNW,292,0.0,0.0,70,0.00,,,0.00,weatherlink.com 1.10,2013-08-07 11:32:00,
2013-08-07 05:47:00,62.2,52.0,29.67,WNW,292,0.0,0.0,70,0.00,,,0.00,weatherlink.com 1.10,2013-08-07 11:47:00,
2013-08-07 06:02:00,61.6,52.0,29.66,WNW,292,0.0,0.0,72,0.00,,,0.00,weatherlink.com 1.10,2013-08-07 12:02:00,
2013-08-07 06:17:00,61.5,53.0,29.67,WNW,292,0.0,0.0,73,0.00,,,0.00,weatherlink.com 1.10,2013-08-07 12:17:00,
2013-08-07 06:32:00,61.3,53.0,29.68,WNW,292,0.0,0.0,73,0.00,,,0.00,weatherlink.com 1.10,2013-08-07 12:32:00,
2013-08-07 06:47:00,61.4,53.0,29.68,WNW,292,0.0,0.0,73,0.00,,,0.00,weatherlink.com 1.10,2013-08-07 12:47:00,
2013-08-07 07:02:00,61.6,53.0,29.68,NNE,14,0.0,0.0,73,0.00,,,0.00,weatherlink.com 1.10,2013-08-07 13:02:00,
2013-08-07 07:17:00,62.7,53.0,29.68,North,11,0.0,0.0,71,0.00,,,0.00,weatherlink.com 1.10,2013-08-07 13:17:00,
2013-08-07 07:32:00,65.2,54.0,29.69,WSW,250,0.0,1.0,68,0.00,,,0.00,weatherlink.com 1.10,2013-08-07 13:32:00,
2013-08-07 07:47:00,67.4,54.0,29.69,West,263,0.0,0.0,63,0.00,,,0.00,weatherlink.com 1.10,2013-08-07 13:47:00,
2013-08-07 08:02:00,68.5,55.0,29.69,NW,319,0.0,0.0,62,0.00,,,0.00,weatherlink.com 1.10,2013-08-07 14:02:00,
2013-08-07 08:17:00,69.4,55.0,29.69,NW,318,0.0,0.0,61,0.00,,,0.00,weatherlink.com 1.10,2013-08-07 14:17:00,
2013-08-07 08:32:00,70.4,56.0,29.70,ENE,74,0.0,0.0,60,0.00,,,0.00,weatherlink.com 1.10,2013-08-07 14:32:00,
2013-08-07 08:47:00,70.8,55.0,29.69,SW,234,0.0,0.0,57,0.00,,,0.00,weatherlink.com 1.10,2013-08-07 14:47:00,
2013-08-07 09:02:00,71.3,55.0,29.70,SSW,208,2.0,4.0,56,0.00,,,0.00,weatherlink.com 1.10,2013-08-07 15:02:00,
2013-08-07 09:17:00,72.0,55.0,29.70,WSW,246,4.0,4.0,55,0.00,,,0.00,weatherlink.com 1.10,2013-08-07 15:17:00,
2013-08-07 09:33:00,72.0,55.0,29.70,SSW,202,0.0,5.0,55,0.00,,,0.00,weatherlink.com 1.10,2013-08-07 15:33:00,
2013-08-07 09:48:00,72.1,55.0,29.71,WSW,244,0.0,6.0,56,0.00,,,0.00,weatherlink.com 1.10,2013-08-07 15:48:00,
2013-08-07 10:03:00,72.1,56.0,29.71,West,262,2.0,5.0,57,0.00,,,0.00,weatherlink.com 1.10,2013-08-07 16:03:00,
2013-08-07 10:18:00,73.8,55.0,29.71,WSW,252,0.0,6.0,53,0.00,,,0.00,weatherlink.com 1.10,2013-08-07 16:18:00,
2013-08-07 10:33:00,74.9,56.0,29.71,East,90,0.0,6.0,52,0.00,,,0.00,weatherlink.com 1.10,2013-08-07 16:33:00,
2013-08-07 10:48:00,75.6,56.0,29.71,SSW,198,0.0,11.0,50,0.00,,,0.00,weatherlink.com 1.10,2013-08-07 16:48:00,
2013-08-07 11:03:00,75.7,55.0,29.71,WSW,238,2.0,8.0,49,0.00,,,0.00,weatherlink.com 1.10,2013-08-07 17:03:00,
2013-08-07 11:18:00,76.7,55.0,29.70,WSW,246,5.0,5.0,48,0.00,,,0.00,weatherlink.com 1.10,2013-08-07 17:18:00,
2013-08-07 11:33:00,76.9,55.0,29.70,WNW,284,0.0,8.0,47,0.00,,,0.00,weatherlink.com 1.10,2013-08-07 17:33:00,
2013-08-07 11:48:00,77.1,55.0,29.70,WSW,250,0.0,13.0,46,0.00,,,0.00,weatherlink.com 1.10,2013-08-07 17:48:00,
2013-08-07 12:03:00,78.1,54.0,29.70,South,175,1.0,11.0,44,0.00,,,0.00,weatherlink.com 1.10,2013-08-07 18:03:00,
2013-08-07 12:18:00,72.5,52.0,29.71,WSW,257,18.0,22.0,49,0.00,,,0.00,weatherlink.com 1.10,2013-08-07 18:18:00,
2013-08-07 12:33:00,72.1,53.0,29.70,West,265,2.0,20.0,51,0.00,,,0.00,weatherlink.com 1.10,2013-08-07 18:33:00,
2013-08-07 12:48:00,73.6,54.0,29.70,WNW,290,1.0,19.0,50,0.00,,,0.00,weatherlink.com 1.10,2013-08-07 18:48:00,
2013-08-07 13:03:00,74.6,54.0,29.70,SW,229,2.0,15.0,49,0.00,,,0.00,weatherlink.com 1.10,2013-08-07 19:03:00,
2013-08-07 13:18:00,76.2,54.0,29.69,WNW,283,5.0,12.0,47,0.00,,,0.00,weatherlink.com 1.10,2013-08-07 19:18:00,
2013-08-07 13:33:00,78.0,54.0,29.69,WSW,246,2.0,8.0,44,0.00,,,0.00,weatherlink.com 1.10,2013-08-07 19:33:00,
2013-08-07 13:48:00,80.1,54.0,29.68,WSW,254,2.0,6.0,40,0.00,,,0.00,weatherlink.com 1.10,2013-08-07 19:48:00,
2013-08-07 14:03:00,80.5,53.0,29.68,WSW,246,5.0,13.0,39,0.00,,,0.00,weatherlink.com 1.10,2013-08-07 20:03:00,
2013-08-07 14:18:00,81.5,53.0,29.67,WSW,251,6.0,8.0,38,0.00,,,0.00,weatherlink.com 1.10,2013-08-07 20:18:00,
2013-08-07 14:33:00,80.6,53.0,29.66,SW,234,2.0,13.0,39,0.00,,,0.00,weatherlink.com 1.10,2013-08-07 20:33:00,
2013-08-07 14:48:00,81.8,53.0,29.66,SW,223,5.0,14.0,37,0.00,,,0.00,weatherlink.com 1.10,2013-08-07 20:48:00,
2013-08-07 15:03:00,82.0,52.0,29.65,South,190,3.0,10.0,36,0.00,,,0.00,weatherlink.com 1.10,2013-08-07 21:03:00,
2013-08-07 15:18:00,82.3,53.0,29.65,South,176,0.0,12.0,36,0.00,,,0.00,weatherlink.com 1.10,2013-08-07 21:18:00,
2013-08-07 15:33:00,82.5,53.0,29.64,South,180,7.0,12.0,36,0.00,,,0.00,weatherlink.com 1.10,2013-08-07 21:33:00,
2013-08-07 15:48:00,81.9,53.0,29.64,WSW,249,3.0,15.0,37,0.00,,,0.00,weatherlink.com 1.10,2013-08-07 21:48:00,
2013-08-07 16:03:00,82.7,53.0,29.63,SW,218,1.0,9.0,36,0.00,,,0.00,weatherlink.com 1.10,2013-08-07 22:03:00,
2013-08-07 16:18:00,83.1,53.0,29.63,SSW,202,0.0,15.0,36,0.00,,,0.00,weatherlink.com 1.10,2013-08-07 22:18:00,
2013-08-07 16:33:00,83.1,52.0,29.62,WNW,292,1.0,14.0,34,0.00,,,0.00,weatherlink.com 1.10,2013-08-07 22:33:00,
2013-08-07 16:48:00,83.8,51.0,29.62,West,277,5.0,14.0,32,0.00,,,0.00,weatherlink.com 1.10,2013-08-07 22:48:00,
2013-08-07 17:03:00,83.7,51.0,29.62,SSW,204,4.0,11.0,32,0.00,,,0.00,weatherlink.com 1.10,2013-08-07 23:03:00,
2013-08-07 17:18:00,82.9,52.0,29.62,WSW,248,1.0,8.0,34,0.00,,,0.00,weatherlink.com 1.10,2013-08-07 23:18:00,
2013-08-07 17:33:00,82.7,52.0,29.62,WSW,246,8.0,13.0,34,0.00,,,0.00,weatherlink.com 1.10,2013-08-07 23:33:00,
2013-08-07 17:48:00,80.3,52.0,29.62,WNW,286,11.0,11.0,38,0.00,,,0.00,weatherlink.com 1.10,2013-08-07 23:48:00,
2013-08-07 18:03:00,79.0,51.0,29.62,WSW,250,12.0,16.0,38,0.00,,,0.00,weatherlink.com 1.10,2013-08-08 00:03:00,
2013-08-07 18:18:00,78.5,50.0,29.62,SW,231,16.0,19.0,37,0.00,,,0.00,weatherlink.com 1.10,2013-08-08 00:18:00,
2013-08-07 18:33:00,79.5,50.0,29.62,WNW,298,1.0,13.0,36,0.00,,,0.00,weatherlink.com 1.10,2013-08-08 00:33:00,
2013-08-07 18:48:00,79.5,53.0,29.63,NNW,328,2.0,11.0,40,0.00,,,0.00,weatherlink.com 1.10,2013-08-08 00:48:00,
2013-08-07 19:03:00,78.5,52.0,29.63,NW,307,3.0,14.0,40,0.00,,,0.00,weatherlink.com 1.10,2013-08-08 01:03:00,
2013-08-07 19:19:00,77.8,54.0,29.63,NNW,333,11.0,13.0,44,0.00,,,0.00,weatherlink.com 1.10,2013-08-08 01:19:00,
2013-08-07 19:34:00,77.0,53.0,29.64,NNW,336,7.0,12.0,44,0.00,,,0.00,weatherlink.com 1.10,2013-08-08 01:34:00,
2013-08-07 19:49:00,75.9,52.0,29.65,North,355,8.0,11.0,43,0.00,,,0.00,weatherlink.com 1.10,2013-08-08 01:49:00,
2013-08-07 20:04:00,75.2,52.0,29.64,NW,326,2.0,10.0,44,0.00,,,0.00,weatherlink.com 1.10,2013-08-08 02:04:00,
2013-08-07 20:19:00,74.8,51.0,29.65,WNW,296,3.0,9.0,43,0.00,,,0.00,weatherlink.com 1.10,2013-08-08 02:19:00,
2013-08-07 20:34:00,74.5,50.0,29.65,NW,325,6.0,9.0,43,0.00,,,0.00,weatherlink.com 1.10,2013-08-08 02:34:00,
2013-08-07 20:49:00,73.6,51.0,29.66,NNW,342,1.0,14.0,45,0.00,,,0.00,weatherlink.com 1.10,2013-08-08 02:49:00,
2013-08-07 21:04:00,73.0,51.0,29.66,NW,323,1.0,8.0,46,0.00,,,0.00,weatherlink.com 1.10,2013-08-08 03:04:00,
2013-08-07 21:19:00,72.8,51.0,29.67,NNW,338,2.0,3.0,47,0.00,,,0.00,weatherlink.com 1.10,2013-08-08 03:19:00,
2013-08-07 21:34:00,72.3,51.0,29.67,North,5,0.0,10.0,48,0.00,,,0.00,weatherlink.com 1.10,2013-08-08 03:34:00,
2013-08-07 21:49:00,71.8,52.0,29.67,NNW,348,0.0,9.0,50,0.00,,,0.00,weatherlink.com 1.10,2013-08-08 03:49:00,
2013-08-07 22:04:00,71.3,53.0,29.67,NW,306,1.0,10.0,52,0.00,,,0.00,weatherlink.com 1.10,2013-08-08 04:04:00,
2013-08-07 22:19:00,71.0,52.0,29.68,NNE,22,2.0,5.0,52,0.00,,,0.00,weatherlink.com 1.10,2013-08-08 04:19:00,
2013-08-07 22:34:00,70.5,53.0,29.68,NNE,24,5.0,6.0,55,0.00,,,0.00,weatherlink.com 1.10,2013-08-08 04:34:00,
2013-08-07 22:49:00,70.1,53.0,29.68,NNE,19,0.0,5.0,55,0.00,,,0.00,weatherlink.com 1.10,2013-08-08 04:49:00,
2013-08-07 23:04:00,69.8,53.0,29.68,North,11,2.0,5.0,56,0.00,,,0.00,weatherlink.com 1.10,2013-08-08 05:04:00,
2013-08-07 23:19:00,69.7,54.0,29.67,NNW,340,0.0,5.0,57,0.00,,,0.00,weatherlink.com 1.10,2013-08-08 05:19:00,
2013-08-07 23:34:00,69.5,54.0,29.67,NW,320,5.0,7.0,58,0.00,,,0.00,weatherlink.com 1.10,2013-08-08 05:34:00,
2013-08-07 23:49:00,69.5,54.0,29.67,NNW,342,0.0,8.0,59,0.00,,,0.00,weatherlink.com 1.10,2013-08-08 05:49:00,